Time;durP1;ratioP1;P1;durP2;ratioP2;P2;SDS_P1;SDS_P2;PMS_P1;PMS_P2;Temp;Humidity;BMP_temperature;BMP_pressure;BME280_temperature;BME280_humidity;BME280_pressure;Samples;Min_cycle;Max_cycle;Signal;HPM_P1;HPM_P2
2022/01/17 00:00:34;;;;;;;62.93;29.33;;;5.50;99.90;;;;;;5017046;28;20230;-79
2022/01/17 00:03:00;;;;;;;62.63;29.97;;;5.50;99.90;;;;;;5034903;28;20188;-79
2022/01/17 00:05:26;;;;;;;60.60;27.53;;;5.50;99.90;;;;;;5017350;28;20192;-79
2022/01/17 00:07:52;;;;;;;57.53;27.77;;;5.50;99.90;;;;;;5034681;28;20748;-79
2022/01/17 00:10:17;;;;;;;53.67;26.60;;;5.50;99.90;;;;;;5034750;28;20204;-78
2022/01/17 00:12:47;;;;;;;53.17;26.40;;;5.50;99.90;;;;;;5017025;28;20621;-79
2022/01/17 00:15:27;;;;;;;51.33;26.77;;;5.50;99.90;;;;;;5035000;28;20177;-78
2022/01/17 00:18:19;;;;;;;51.67;25.97;;;5.50;99.90;;;;;;5034249;28;20222;-79
2022/01/17 00:20:38;;;;;;;51.77;25.37;;;5.50;99.90;;;;;;5034219;28;20215;-79
2022/01/17 00:23:04;;;;;;;55.30;26.73;;;5.50;99.90;;;;;;5034743;28;20267;-79
2022/01/17 00:25:30;;;;;;;48.37;25.77;;;5.50;99.90;;;;;;5017315;28;20190;-79
2022/01/17 00:27:55;;;;;;;53.23;25.80;;;5.50;99.90;;;;;;5034778;28;20227;-79
2022/01/17 00:30:21;;;;;;;54.53;26.10;;;5.50;99.90;;;;;;5034433;28;20254;-79
2022/01/17 00:32:46;;;;;;;55.23;27.33;;;5.50;99.90;;;;;;5034120;28;20212;-79
2022/01/17 00:35:12;;;;;;;53.37;26.77;;;5.50;99.90;;;;;;5016581;28;20187;-79
2022/01/17 00:37:38;;;;;;;56.20;26.77;;;5.50;99.90;;;;;;5034850;28;20180;-79
2022/01/17 00:40:04;;;;;;;55.87;27.40;;;5.50;99.90;;;;;;5034285;28;20275;-79
2022/01/17 00:42:29;;;;;;;53.83;27.07;;;5.50;99.90;;;;;;5037240;28;20536;-78
2022/01/17 00:44:55;;;;;;;55.00;27.33;;;5.60;99.90;;;;;;5038515;28;20242;-79
2022/01/17 00:47:20;;;;;;;57.63;27.77;;;5.50;99.90;;;;;;5038361;28;20240;-79
2022/01/17 00:49:46;;;;;;;57.33;27.93;;;5.60;99.90;;;;;;5020204;28;20216;-79
2022/01/17 00:52:11;;;;;;;66.93;28.83;;;5.60;99.90;;;;;;5037876;28;20238;-79
2022/01/17 00:54:37;;;;;;;60.90;29.20;;;5.50;99.90;;;;;;5038064;28;20523;-79
2022/01/17 00:57:03;;;;;;;58.27;29.23;;;5.50;99.90;;;;;;5038590;28;20172;-79
2022/01/17 00:59:29;;;;;;;59.17;29.27;;;5.60;99.90;;;;;;5020518;28;20219;-79
2022/01/17 01:01:55;;;;;;;68.27;31.17;;;5.60;99.90;;;;;;5038057;28;20180;-79
2022/01/17 01:04:20;;;;;;;64.53;30.47;;;5.50;99.90;;;;;;5038464;28;20187;-79
2022/01/17 01:06:46;;;;;;;61.17;29.50;;;5.60;99.90;;;;;;5037890;28;20731;-79
2022/01/17 01:09:11;;;;;;;61.60;30.43;;;5.60;99.90;;;;;;5020061;28;20266;-79
2022/01/17 01:11:37;;;;;;;71.03;31.30;;;5.60;99.90;;;;;;5037937;28;20650;-79
2022/01/17 01:14:04;;;;;;;61.80;29.33;;;5.50;99.90;;;;;;5037802;28;20191;-79
2022/01/17 01:16:33;;;;;;;62.73;30.57;;;5.60;99.90;;;;;;5020064;28;20188;-79
2022/01/17 01:19:09;;;;;;;75.23;33.20;;;5.60;99.90;;;;;;5038382;28;20287;-79
2022/01/17 01:29:44;;;;;;;66.40;31.57;;;5.60;99.90;;;;;;5037738;28;20300;-79
2022/01/17 01:32:10;;;;;;;66.37;32.50;;;5.60;99.90;;;;;;5019942;28;20172;-79
2022/01/17 01:34:40;;;;;;;73.13;32.17;;;5.60;99.90;;;;;;5038122;28;20168;-79
2022/01/17 01:37:06;;;;;;;81.60;33.23;;;5.60;99.90;;;;;;5038652;28;20626;-79
2022/01/17 01:39:33;;;;;;;67.77;32.83;;;5.60;99.90;;;;;;5038285;28;20204;-79
2022/01/17 01:41:59;;;;;;;72.80;33.00;;;5.60;99.90;;;;;;5020233;28;20184;-79
2022/01/17 01:44:26;;;;;;;67.00;32.30;;;5.60;99.90;;;;;;5020782;28;20192;-79
2022/01/17 01:46:54;;;;;;;73.23;32.87;;;5.60;99.90;;;;;;5039229;28;20208;-79
2022/01/17 01:49:20;;;;;;;79.40;35.30;;;5.60;99.90;;;;;;5038040;28;20204;-79
2022/01/17 01:51:46;;;;;;;67.50;32.43;;;5.70;99.90;;;;;;5038020;28;20255;-79
2022/01/17 01:54:13;;;;;;;77.37;34.23;;;5.60;99.90;;;;;;5035824;28;20277;-77
2022/01/17 01:56:43;;;;;;;71.00;35.00;;;5.70;99.90;;;;;;5035990;28;20173;-77
2022/01/17 01:59:09;;;;;;;72.23;32.40;;;5.70;99.90;;;;;;5035563;28;20258;-77
2022/01/17 02:01:35;;;;;;;75.03;33.27;;;5.70;99.90;;;;;;5036574;28;20180;-78
2022/01/17 02:04:01;;;;;;;77.73;32.13;;;5.70;99.90;;;;;;5036038;28;20180;-79
2022/01/17 02:06:27;;;;;;;75.83;34.73;;;5.70;99.90;;;;;;5037510;28;20267;-79
2022/01/17 02:08:53;;;;;;;69.30;31.57;;;5.70;99.90;;;;;;5036807;28;20235;-79
2022/01/17 02:11:18;;;;;;;68.47;32.77;;;5.70;99.90;;;;;;5036859;28;20199;-79
2022/01/17 02:13:46;;;;;;;72.43;32.97;;;5.70;99.90;;;;;;5037103;28;20195;-79
2022/01/17 02:16:14;;;;;;;73.13;33.13;;;5.60;99.90;;;;;;5019837;28;20615;-79
2022/01/17 02:18:44;;;;;;;80.77;34.77;;;5.70;99.90;;;;;;5037092;28;20199;-79
2022/01/17 02:21:18;;;;;;;66.97;32.63;;;5.70;99.90;;;;;;5037280;28;20176;-80
2022/01/17 02:23:46;;;;;;;71.90;31.93;;;5.60;99.90;;;;;;5019662;28;20169;-79
2022/01/17 02:26:12;;;;;;;67.50;33.43;;;5.70;99.90;;;;;;5036669;28;20184;-79
2022/01/17 02:28:39;;;;;;;71.10;32.90;;;5.70;99.90;;;;;;5018718;28;20227;-79
2022/01/17 02:31:06;;;;;;;69.10;30.90;;;5.70;99.90;;;;;;5036425;28;20172;-79
2022/01/17 02:33:34;;;;;;;77.00;32.50;;;5.70;99.90;;;;;;5019114;28;20223;-79
2022/01/17 02:36:00;;;;;;;65.23;30.97;;;5.70;99.90;;;;;;5036671;28;20176;-79
2022/01/17 02:38:26;;;;;;;71.57;31.53;;;5.70;99.90;;;;;;5018495;28;20201;-79
2022/01/17 02:40:53;;;;;;;67.33;31.50;;;5.70;99.90;;;;;;5020192;28;20191;-79
2022/01/17 02:43:21;;;;;;;67.67;32.00;;;5.70;99.90;;;;;;5018244;28;20737;-79
2022/01/17 02:48:20;;;;;;;74.27;34.07;;;5.70;99.90;;;;;;5036264;28;20196;-79
2022/01/17 02:50:47;;;;;;;73.73;33.53;;;5.70;99.90;;;;;;5036133;28;20215;-79
2022/01/17 02:53:13;;;;;;;70.17;33.30;;;5.70;99.90;;;;;;5035643;28;20665;-78
2022/01/17 02:55:58;;;;;;;74.40;31.83;;;5.70;99.90;;;;;;5036218;28;20211;-79
2022/01/17 02:58:25;;;;;;;70.20;32.13;;;5.80;99.90;;;;;;5018105;28;20673;-79
2022/01/17 03:00:53;;;;;;;71.97;33.43;;;5.80;99.90;;;;;;5018447;28;20215;-79
2022/01/17 03:03:21;;;;;;;72.50;34.37;;;5.80;99.90;;;;;;5018469;28;20194;-78
2022/01/17 03:05:48;;;;;;;81.77;35.80;;;5.80;99.90;;;;;;5018014;28;20220;-78
2022/01/17 03:08:15;;;;;;;76.90;32.40;;;5.80;99.90;;;;;;5036002;28;20297;-78
2022/01/17 03:10:43;;;;;;;79.53;32.63;;;5.90;99.90;;;;;;5036372;28;20176;-79
2022/01/17 03:13:19;;;;;;;73.83;35.87;;;5.90;99.90;;;;;;5035308;28;20717;-79
2022/01/17 03:15:47;;;;;;;78.13;34.67;;;5.90;99.90;;;;;;5036526;28;20189;-78
2022/01/17 03:18:13;;;;;;;70.27;33.57;;;5.90;99.90;;;;;;5036041;28;20663;-78
2022/01/17 03:20:39;;;;;;;68.67;34.87;;;5.90;99.90;;;;;;5017923;28;20208;-79
2022/01/17 03:23:08;;;;;;;89.17;36.43;;;5.90;99.90;;;;;;5035480;28;20184;-79
2022/01/17 03:25:34;;;;;;;76.00;35.03;;;5.90;99.90;;;;;;5035044;28;20214;-77
2022/01/17 03:28:00;;;;;;;72.57;35.03;;;5.90;99.90;;;;;;5033868;28;20212;-77
2022/01/17 03:30:28;;;;;;;73.40;35.80;;;5.90;99.90;;;;;;5034721;28;20218;-77
2022/01/17 03:32:53;;;;;;;78.40;35.50;;;5.90;99.90;;;;;;5034038;28;20180;-77
2022/01/17 03:35:19;;;;;;;69.83;36.57;;;5.90;99.90;;;;;;5015974;28;20680;-77
2022/01/17 03:37:45;;;;;;;67.97;34.20;;;5.80;99.90;;;;;;5033709;28;20180;-77
2022/01/17 03:40:12;;;;;;;67.07;34.17;;;5.80;99.90;;;;;;5033531;28;20220;-76
2022/01/17 03:42:39;;;;;;;74.40;33.93;;;5.90;99.90;;;;;;5015940;28;20542;-77
2022/01/17 03:45:09;;;;;;;65.47;32.67;;;5.90;99.90;;;;;;5016465;28;20222;-78
2022/01/17 03:47:36;;;;;;;68.87;35.97;;;5.80;99.90;;;;;;5034975;28;20250;-79
2022/01/17 03:50:04;;;;;;;69.97;34.60;;;5.80;99.90;;;;;;5034016;28;20621;-79
2022/01/17 03:52:30;;;;;;;75.00;35.33;;;5.90;99.90;;;;;;5035167;28;20184;-79
2022/01/17 03:54:56;;;;;;;75.37;34.03;;;5.80;99.90;;;;;;5035474;28;20184;-79
2022/01/17 03:57:21;;;;;;;74.43;34.27;;;5.80;99.90;;;;;;5035040;28;20665;-78
2022/01/17 03:59:47;;;;;;;74.20;34.60;;;5.90;99.90;;;;;;5034880;28;20709;-79
2022/01/17 04:02:12;;;;;;;70.83;33.87;;;5.90;99.90;;;;;;5034575;28;20191;-78
2022/01/17 04:04:38;;;;;;;69.30;33.90;;;5.80;99.90;;;;;;5035356;28;20230;-79
2022/01/17 04:07:03;;;;;;;66.83;33.57;;;5.90;99.90;;;;;;5034756;28;20188;-80
2022/01/17 04:09:29;;;;;;;70.63;34.33;;;5.80;99.90;;;;;;5035095;28;20212;-79
2022/01/17 04:11:54;;;;;;;61.20;32.93;;;5.80;99.90;;;;;;5017157;28;20275;-79
2022/01/17 04:14:20;;;;;;;67.97;33.40;;;5.90;99.90;;;;;;5017328;28;20283;-79
2022/01/17 04:16:45;;;;;;;63.57;31.73;;;5.80;99.90;;;;;;5034376;28;20177;-79
2022/01/17 04:19:12;;;;;;;63.17;31.07;;;5.80;99.90;;;;;;5017437;28;20250;-79
2022/01/17 04:21:38;;;;;;;64.50;32.17;;;5.90;99.90;;;;;;5035019;28;20180;-79
2022/01/17 04:24:03;;;;;;;57.20;30.17;;;5.80;99.90;;;;;;5035268;28;20260;-79
2022/01/17 04:26:29;;;;;;;52.50;30.50;;;5.80;99.90;;;;;;5034569;28;20259;-79
2022/01/17 04:28:55;;;;;;;69.03;31.73;;;5.80;99.90;;;;;;5017228;28;20220;-79
2022/01/17 04:31:20;;;;;;;60.47;29.90;;;5.80;99.90;;;;;;5035049;28;20192;-79
2022/01/17 04:33:46;;;;;;;59.80;31.07;;;5.80;99.90;;;;;;5034369;28;20245;-79
2022/01/17 04:36:12;;;;;;;56.57;28.63;;;5.80;99.90;;;;;;5016846;28;20271;-79
2022/01/17 04:38:38;;;;;;;59.93;28.30;;;5.80;99.90;;;;;;5034558;28;20301;-79
2022/01/17 04:41:14;;;;;;;61.80;29.63;;;5.80;99.90;;;;;;5035354;28;20742;-79
2022/01/17 04:46:08;;;;;;;52.13;29.00;;;5.80;99.90;;;;;;5034888;28;20301;-79
2022/01/17 04:48:34;;;;;;;65.17;29.87;;;5.80;99.90;;;;;;5034308;28;20350;-79
2022/01/17 04:51:00;;;;;;;55.53;28.60;;;5.80;99.90;;;;;;5034429;28;20180;-79
2022/01/17 04:53:30;;;;;;;58.37;28.93;;;5.70;99.90;;;;;;5016810;28;20220;-79
2022/01/17 04:55:55;;;;;;;61.00;29.70;;;5.70;99.90;;;;;;5016790;28;20188;-79
2022/01/17 04:58:21;;;;;;;60.53;29.17;;;5.70;99.90;;;;;;5034445;28;20185;-78
2022/01/17 05:00:47;;;;;;;52.53;27.40;;;5.70;99.90;;;;;;5017135;28;20188;-79
2022/01/17 05:03:35;;;;;;;54.07;27.10;;;5.70;99.90;;;;;;5034728;28;20687;-78
2022/01/17 05:06:01;;;;;;;55.13;28.67;;;5.80;99.90;;;;;;5033892;28;20263;-79
2022/01/17 05:08:26;;;;;;;55.07;25.70;;;5.70;99.90;;;;;;5034303;28;20230;-79
2022/01/17 05:10:54;;;;;;;50.73;26.27;;;5.80;99.90;;;;;;5016771;28;20714;-79
2022/01/17 05:13:25;;;;;;;55.33;26.47;;;5.70;99.90;;;;;;5034296;28;20176;-79
2022/01/17 05:16:05;;;;;;;49.47;25.97;;;5.70;99.90;;;;;;5016515;28;20181;-78
2022/01/17 05:20:56;;;;;;;50.97;25.23;;;5.70;99.90;;;;;;5035054;28;20246;-79
2022/01/17 05:23:21;;;;;;;53.13;25.90;;;5.70;99.90;;;;;;5034843;28;20200;-78
2022/01/17 05:25:47;;;;;;;47.77;24.87;;;5.70;99.90;;;;;;5034635;28;20199;-79
2022/01/17 05:28:12;;;;;;;50.83;25.40;;;5.70;99.90;;;;;;5035828;28;20681;-78
2022/01/17 05:30:38;;;;;;;49.20;25.80;;;5.70;99.90;;;;;;5037739;28;20202;-79
2022/01/17 05:33:03;;;;;;;49.03;26.27;;;5.70;99.90;;;;;;5019905;28;20528;-79
2022/01/17 05:35:29;;;;;;;49.97;26.07;;;5.70;99.90;;;;;;5020111;28;20180;-79
2022/01/17 05:37:54;;;;;;;46.07;25.90;;;5.70;99.90;;;;;;5019879;28;20220;-79
2022/01/17 05:40:20;;;;;;;53.70;26.50;;;5.70;99.90;;;;;;5037623;28;20289;-79
2022/01/17 05:42:46;;;;;;;51.03;27.93;;;5.70;99.90;;;;;;5037360;28;20274;-79
2022/01/17 05:45:13;;;;;;;52.80;26.27;;;5.70;99.90;;;;;;5018979;28;20290;-79
2022/01/17 05:47:38;;;;;;;48.90;25.30;;;5.70;99.90;;;;;;5037688;28;20581;-79
2022/01/17 05:50:05;;;;;;;53.33;26.63;;;5.70;99.90;;;;;;5019683;28;20208;-79
2022/01/17 05:52:31;;;;;;;44.37;25.37;;;5.70;99.90;;;;;;5037601;28;20661;-78
2022/01/17 05:54:57;;;;;;;47.50;25.60;;;5.70;99.90;;;;;;5036800;28;20208;-76
2022/01/17 05:57:24;;;;;;;51.63;27.10;;;5.60;99.90;;;;;;5017993;28;20281;-77
2022/01/17 05:59:50;;;;;;;48.10;25.57;;;5.70;99.90;;;;;;5036377;28;20192;-77
2022/01/17 06:02:15;;;;;;;48.80;25.67;;;5.60;99.90;;;;;;5018829;28;20188;-79
2022/01/17 06:04:41;;;;;;;46.10;25.43;;;5.70;99.90;;;;;;5037215;28;20207;-79
2022/01/17 06:07:06;;;;;;;48.73;25.30;;;5.70;99.90;;;;;;5037415;28;20199;-79
2022/01/17 06:09:32;;;;;;;48.10;24.00;;;5.70;99.90;;;;;;5036485;28;20311;-80
2022/01/17 06:11:58;;;;;;;48.60;25.40;;;5.70;99.90;;;;;;5018367;28;20184;-79
2022/01/17 06:14:24;;;;;;;45.27;24.60;;;5.70;99.90;;;;;;5036557;28;20184;-80
2022/01/17 06:16:50;;;;;;;49.83;24.00;;;5.70;99.90;;;;;;5035712;28;20184;-80
2022/01/17 06:19:17;;;;;;;49.60;24.50;;;5.70;99.90;;;;;;5018540;28;20262;-79
2022/01/17 06:21:43;;;;;;;40.60;22.90;;;5.70;99.90;;;;;;5036198;28;20212;-79
2022/01/17 06:24:09;;;;;;;46.70;23.63;;;5.60;99.90;;;;;;5018551;28;20184;-79
2022/01/17 06:26:39;;;;;;;41.80;22.57;;;5.70;99.90;;;;;;5035877;28;20662;-79
2022/01/17 06:29:06;;;;;;;40.87;22.23;;;5.60;99.90;;;;;;5018211;28;20255;-80
2022/01/17 06:31:33;;;;;;;42.80;21.60;;;5.70;99.90;;;;;;5036023;28;20172;-80
2022/01/17 06:33:59;;;;;;;46.20;21.63;;;5.70;99.90;;;;;;5035955;28;20237;-79
2022/01/17 06:36:24;;;;;;;43.13;22.13;;;5.70;99.90;;;;;;5037958;28;20185;-79
2022/01/17 06:38:50;;;;;;;44.20;21.70;;;5.70;99.90;;;;;;5035968;28;20290;-80
2022/01/17 06:41:17;;;;;;;44.63;21.07;;;5.70;99.90;;;;;;5036860;28;20246;-78
2022/01/17 06:43:43;;;;;;;46.07;22.60;;;5.60;99.90;;;;;;5036137;28;20204;-78
2022/01/17 06:46:08;;;;;;;42.43;21.60;;;5.60;99.90;;;;;;5018627;28;20188;-78
2022/01/17 06:48:34;;;;;;;40.87;22.67;;;5.60;99.90;;;;;;5017871;28;20211;-79
2022/01/17 06:50:59;;;;;;;38.63;20.60;;;5.60;99.90;;;;;;5018483;28;20195;-79
2022/01/17 06:53:27;;;;;;;44.93;22.13;;;5.60;99.90;;;;;;5036414;28;20196;-79
2022/01/17 06:55:53;;;;;;;51.13;22.70;;;5.60;99.90;;;;;;5036264;28;20172;-78
2022/01/17 06:58:19;;;;;;;42.53;20.73;;;5.60;99.90;;;;;;5036282;28;20184;-79
2022/01/17 07:00:45;;;;;;;41.30;20.27;;;5.60;99.90;;;;;;5035830;28;20173;-79
2022/01/17 07:03:11;;;;;;;38.90;20.70;;;5.60;99.90;;;;;;5018213;28;20630;-79
2022/01/17 07:05:36;;;;;;;36.73;21.00;;;5.50;99.90;;;;;;5036212;28;20669;-79
2022/01/17 07:08:02;;;;;;;35.57;19.27;;;5.60;99.90;;;;;;5035815;28;20294;-79
2022/01/17 07:10:28;;;;;;;36.10;19.73;;;5.50;99.90;;;;;;5018462;28;20254;-79
2022/01/17 07:12:54;;;;;;;36.53;19.37;;;5.60;99.90;;;;;;5017106;28;20227;-79
2022/01/17 07:15:20;;;;;;;33.77;20.20;;;5.60;99.90;;;;;;5017476;28;20182;-79
2022/01/17 07:17:46;;;;;;;37.00;20.53;;;5.60;99.90;;;;;;5035590;28;20188;-79
2022/01/17 07:20:11;;;;;;;34.77;19.70;;;5.60;99.90;;;;;;5035724;28;20751;-78
2022/01/17 07:22:37;;;;;;;35.77;19.33;;;5.60;99.90;;;;;;5035733;28;20185;-79
2022/01/17 07:25:03;;;;;;;34.47;19.83;;;5.50;99.90;;;;;;5035865;28;20184;-79
2022/01/17 07:27:29;;;;;;;35.47;18.87;;;5.50;99.90;;;;;;5036761;28;20215;-78
2022/01/17 07:29:55;;;;;;;35.37;19.03;;;5.50;99.90;;;;;;5035618;28;20200;-79
2022/01/17 07:32:21;;;;;;;38.40;20.03;;;5.50;99.90;;;;;;5035580;28;20190;-79
2022/01/17 07:34:46;;;;;;;34.07;20.50;;;5.50;99.90;;;;;;5017815;28;20677;-79
2022/01/17 07:37:12;;;;;;;33.77;19.23;;;5.50;99.90;;;;;;5018699;28;20573;-79
2022/01/17 07:39:38;;;;;;;36.77;19.77;;;5.50;99.90;;;;;;5017643;28;20310;-79
2022/01/17 07:42:04;;;;;;;34.73;19.57;;;5.60;99.90;;;;;;5017869;28;20188;-79
2022/01/17 07:44:30;;;;;;;38.60;20.27;;;5.60;99.90;;;;;;5017629;28;20257;-79
2022/01/17 07:47:00;;;;;;;37.33;19.97;;;5.60;99.90;;;;;;5035413;28;20184;-79
2022/01/17 07:49:26;;;;;;;32.03;19.03;;;5.70;99.90;;;;;;5035205;28;20208;-79
2022/01/17 07:52:05;;;;;;;34.93;19.30;;;5.70;99.90;;;;;;5034840;28;20263;-79
2022/01/17 07:54:33;;;;;;;33.63;19.30;;;5.70;99.90;;;;;;5034048;28;20172;-76
2022/01/17 07:57:00;;;;;;;37.33;20.57;;;5.70;99.90;;;;;;5033711;28;20255;-77
2022/01/17 07:59:27;;;;;;;33.67;20.23;;;5.80;99.90;;;;;;5033766;28;20751;-77
2022/01/17 08:01:53;;;;;;;35.97;20.70;;;5.80;99.90;;;;;;5033051;28;20673;-77
2022/01/17 08:04:19;;;;;;;36.30;21.23;;;5.80;99.90;;;;;;5016772;28;20198;-79
2022/01/17 08:06:46;;;;;;;39.97;21.80;;;5.80;99.90;;;;;;5035472;28;20189;-79
2022/01/17 08:09:19;;;;;;;43.53;22.73;;;5.80;99.90;;;;;;5017580;28;20220;-80
2022/01/17 08:11:45;;;;;;;43.57;25.17;;;5.90;99.90;;;;;;5034152;28;20283;-79
2022/01/17 08:14:11;;;;;;;52.90;27.53;;;5.90;99.90;;;;;;5034924;28;20545;-80
2022/01/17 08:16:37;;;;;;;48.50;28.07;;;6.00;99.90;;;;;;5034731;28;20188;-78
2022/01/17 08:19:03;;;;;;;54.03;29.03;;;6.10;99.90;;;;;;5034892;28;20208;-79
2022/01/17 08:21:28;;;;;;;51.13;27.83;;;6.30;99.90;;;;;;5017348;28;20203;-79
2022/01/17 08:23:54;;;;;;;48.83;28.13;;;6.30;99.90;;;;;;5017152;28;20184;-79
2022/01/17 08:26:21;;;;;;;46.30;25.77;;;6.40;99.90;;;;;;5035207;28;20227;-79
2022/01/17 08:28:47;;;;;;;38.77;25.00;;;6.40;99.90;;;;;;5034843;28;20247;-79
2022/01/17 08:31:13;;;;;;;39.53;24.33;;;6.40;99.90;;;;;;5034551;28;20219;-79
2022/01/17 08:33:39;;;;;;;38.77;22.47;;;6.40;99.90;;;;;;5035071;28;20176;-79
2022/01/17 08:36:07;;;;;;;35.80;19.53;;;6.40;99.90;;;;;;5034820;28;20236;-79
2022/01/17 08:38:33;;;;;;;33.30;18.87;;;6.40;99.90;;;;;;5035149;28;20660;-79
2022/01/17 08:40:59;;;;;;;31.03;19.13;;;6.30;99.90;;;;;;5035195;28;20647;-79
2022/01/17 08:43:25;;;;;;;31.50;20.03;;;6.30;99.90;;;;;;5035342;28;20187;-79
2022/01/17 08:45:51;;;;;;;30.60;19.37;;;6.30;99.90;;;;;;5033720;28;20188;-78
2022/01/17 08:48:17;;;;;;;40.23;20.57;;;6.30;99.90;;;;;;5015978;28;20247;-79
2022/01/17 08:50:43;;;;;;;33.27;20.53;;;6.30;99.90;;;;;;5033492;28;20650;-78
2022/01/17 08:53:10;;;;;;;39.53;19.83;;;6.20;99.90;;;;;;5015875;28;20180;-79
2022/01/17 08:55:37;;;;;;;32.27;19.30;;;6.20;99.90;;;;;;5016044;28;20211;-78
2022/01/17 08:58:03;;;;;;;41.33;21.30;;;6.20;99.90;;;;;;5033486;28;20191;-78
2022/01/17 09:00:31;;;;;;;36.37;21.20;;;6.20;99.90;;;;;;5015141;28;20208;-78
2022/01/17 09:02:57;;;;;;;42.17;20.37;;;6.20;99.90;;;;;;5016508;28;20192;-78
2022/01/17 09:05:23;;;;;;;38.87;21.80;;;6.20;99.90;;;;;;5019388;28;20180;-79
2022/01/17 09:07:48;;;;;;;39.67;23.10;;;6.20;99.90;;;;;;5038270;28;20207;-78
2022/01/17 09:10:15;;;;;;;37.57;23.37;;;6.10;99.90;;;;;;5020746;28;20617;-79
2022/01/17 09:12:41;;;;;;;37.87;22.40;;;6.10;99.90;;;;;;5038642;28;20549;-79
2022/01/17 09:15:07;;;;;;;41.83;23.03;;;6.10;99.90;;;;;;5020572;28;20177;-79
2022/01/17 09:17:33;;;;;;;37.63;23.47;;;6.10;99.90;;;;;;5038133;28;20188;-78
2022/01/17 09:19:58;;;;;;;38.63;23.83;;;6.20;99.90;;;;;;5038565;28;20283;-79
2022/01/17 09:22:24;;;;;;;43.60;25.83;;;6.20;99.90;;;;;;5038139;28;20237;-79
2022/01/17 09:24:51;;;;;;;46.60;26.60;;;6.20;99.90;;;;;;5038342;28;20169;-79
2022/01/17 09:27:17;;;;;;;45.60;27.87;;;6.20;99.90;;;;;;5036673;28;20673;-77
2022/01/17 09:29:43;;;;;;;37.23;25.13;;;6.30;99.90;;;;;;5036573;28;20298;-77
2022/01/17 09:32:09;;;;;;;35.30;24.00;;;6.40;99.90;;;;;;5018869;28;20181;-77
2022/01/17 09:34:35;;;;;;;43.70;24.90;;;6.50;99.90;;;;;;5036611;28;20243;-77
2022/01/17 09:37:00;;;;;;;40.43;24.63;;;6.50;99.90;;;;;;5018957;28;20188;-78
2022/01/17 09:39:26;;;;;;;37.17;24.80;;;6.60;99.90;;;;;;5019097;28;20227;-78
2022/01/17 09:41:51;;;;;;;46.10;25.27;;;6.60;99.90;;;;;;5038209;28;20186;-79
2022/01/17 09:44:17;;;;;;;44.07;26.63;;;6.60;99.90;;;;;;5036785;28;20188;-79
2022/01/17 09:46:46;;;;;;;46.47;26.53;;;6.60;99.90;;;;;;5037758;28;20181;-78
2022/01/17 09:49:26;;;;;;;43.13;25.80;;;6.50;99.90;;;;;;5038097;28;20200;-79
2022/01/17 09:54:25;;;;;;;44.93;28.80;;;6.60;99.90;;;;;;5039333;28;20188;-79
2022/01/17 09:56:53;;;;;;;43.33;31.00;;;6.60;99.90;;;;;;5039486;28;20187;-78
2022/01/17 09:59:19;;;;;;;50.83;30.17;;;6.70;99.90;;;;;;5021185;28;20583;-79
2022/01/17 10:01:45;;;;;;;45.47;27.30;;;6.70;99.90;;;;;;5039352;28;20188;-79
2022/01/17 10:04:10;;;;;;;40.37;25.03;;;6.70;99.90;;;;;;5038802;28;20184;-79
2022/01/17 10:06:39;;;;;;;32.60;23.90;;;6.70;99.90;;;;;;5041573;28;20272;-79
2022/01/17 10:09:22;;;;;;;38.97;21.97;;;6.80;99.90;;;;;;5040700;28;20216;-78
2022/01/17 10:12:10;;;;;;;38.87;23.00;;;6.80;99.90;;;;;;5038529;28;20180;-78
2022/01/17 10:15:02;;;;;;;41.53;23.73;;;6.70;99.90;;;;;;5026791;28;20192;-78
2022/01/17 10:17:42;;;;;;;40.67;22.93;;;6.70;99.90;;;;;;5021329;28;20565;-77
2022/01/17 10:20:09;;;;;;;36.93;20.13;;;6.70;99.90;;;;;;5017583;28;20242;-76
2022/01/17 10:22:45;;;;;;;35.93;22.70;;;6.70;99.90;;;;;;5017519;28;20188;-76
2022/01/17 10:25:58;;;;;;;34.53;23.70;;;6.70;99.90;;;;;;5035068;28;20175;-76
2022/01/17 10:36:18;;;;;;;35.63;21.80;;;6.70;99.90;;;;;;5034825;28;20246;-77
2022/01/17 10:38:44;;;;;;;38.90;25.03;;;6.70;99.90;;;;;;5017324;28;20216;-77
2022/01/17 10:41:09;;;;;;;38.93;24.73;;;6.60;99.90;;;;;;5034976;28;20180;-77
2022/01/17 10:43:42;;;;;;;48.07;27.77;;;6.60;99.90;;;;;;5017292;28;20184;-77
2022/01/17 10:46:10;;;;;;;49.50;30.80;;;6.60;99.90;;;;;;5016932;28;20669;-77
2022/01/17 10:48:45;;;;;;;44.63;28.33;;;6.70;99.90;;;;;;5017131;28;20697;-77
2022/01/17 10:51:12;;;;;;;43.10;26.43;;;6.60;99.90;;;;;;5034979;28;20179;-77
2022/01/17 10:53:40;;;;;;;46.23;25.90;;;6.60;99.90;;;;;;5016686;28;20176;-77
2022/01/17 10:56:08;;;;;;;38.43;25.17;;;6.60;99.90;;;;;;5016837;28;20191;-77
2022/01/17 10:58:37;;;;;;;43.67;27.03;;;6.60;99.90;;;;;;5016910;28;20267;-77
2022/01/17 11:01:16;;;;;;;43.10;25.83;;;6.60;99.90;;;;;;5017011;28;20192;-78
2022/01/17 11:03:42;;;;;;;43.37;25.23;;;6.60;99.90;;;;;;5034648;28;20156;-77
2022/01/17 11:06:14;;;;;;;42.03;24.53;;;6.60;99.90;;;;;;5034444;28;20267;-77
2022/01/17 11:08:41;;;;;;;52.43;26.57;;;6.60;99.90;;;;;;5016566;28;20583;-76
2022/01/17 11:11:09;;;;;;;44.50;28.13;;;6.70;99.90;;;;;;5034526;28;20177;-77
2022/01/17 11:13:38;;;;;;;48.43;29.50;;;6.70;99.90;;;;;;5016617;28;20188;-77
2022/01/17 11:16:11;;;;;;;44.63;27.37;;;6.70;99.90;;;;;;5035241;28;20176;-77
2022/01/17 11:18:37;;;;;;;35.90;22.87;;;6.70;99.90;;;;;;5034764;28;20295;-78
2022/01/17 11:21:10;;;;;;;45.00;25.03;;;6.70;99.90;;;;;;5034378;28;20262;-76
2022/01/17 11:23:41;;;;;;;33.33;21.57;;;6.70;99.90;;;;;;5016229;28;20182;-78
2022/01/17 11:26:07;;;;;;;34.03;21.20;;;6.70;99.90;;;;;;5034402;28;20156;-78
2022/01/17 11:28:34;;;;;;;31.30;20.60;;;6.70;99.90;;;;;;5017287;28;20303;-77
2022/01/17 11:31:06;;;;;;;36.17;21.20;;;6.70;99.90;;;;;;5017191;28;20187;-78
2022/01/17 11:33:33;;;;;;;33.43;16.93;;;6.70;99.90;;;;;;5034287;28;20241;-77
2022/01/17 11:35:58;;;;;;;35.97;17.97;;;6.70;99.90;;;;;;5016899;28;20318;-78
2022/01/17 11:38:31;;;;;;;34.27;17.40;;;6.70;99.90;;;;;;5017222;28;20642;-78
2022/01/17 11:40:58;;;;;;;31.87;17.03;;;6.80;99.90;;;;;;5034974;28;20188;-78
2022/01/17 11:43:37;;;;;;;32.40;18.67;;;6.80;99.90;;;;;;5016850;28;20267;-78
2022/01/17 11:46:17;;;;;;;33.70;18.53;;;6.80;99.90;;;;;;5017274;28;20275;-78
2022/01/17 11:49:00;;;;;;;43.13;21.23;;;6.80;99.90;;;;;;5035319;28;20208;-79
2022/01/17 11:51:40;;;;;;;33.30;18.90;;;6.80;99.90;;;;;;5035404;28;20160;-79
2022/01/17 11:54:29;;;;;;;51.77;22.13;;;6.80;99.90;;;;;;5016987;28;20206;-78
2022/01/17 11:57:02;;;;;;;53.67;25.90;;;6.80;99.90;;;;;;5007115;28;20191;-78
2022/01/17 11:59:48;;;;;;;45.30;23.50;;;6.80;99.90;;;;;;5034401;28;20219;-78
2022/01/17 12:02:22;;;;;;;36.13;18.10;;;6.90;99.90;;;;;;5034738;28;20168;-77
2022/01/17 12:05:10;;;;;;;32.87;14.43;;;6.90;99.90;;;;;;5034192;28;20187;-78
2022/01/17 12:08:06;;;;;;;28.33;14.50;;;6.90;99.90;;;;;;5017063;28;20180;-78
2022/01/17 12:10:59;;;;;;;31.90;14.30;;;6.90;99.90;;;;;;5017914;28;20200;-77
2022/01/17 12:13:39;;;;;;;30.13;14.80;;;6.90;99.90;;;;;;5007776;28;20622;-78
2022/01/17 12:16:10;;;;;;;26.80;14.03;;;6.90;99.90;;;;;;5016291;28;20207;-77
2022/01/17 12:18:57;;;;;;;28.27;13.67;;;6.90;99.90;;;;;;5016148;28;20173;-78
2022/01/17 12:21:24;;;;;;;27.27;12.77;;;6.90;99.90;;;;;;5015716;28;20287;-77
2022/01/17 12:24:10;;;;;;;25.20;12.60;;;6.90;99.90;;;;;;5031981;28;20188;-77
2022/01/17 12:26:36;;;;;;;29.23;13.70;;;6.90;99.90;;;;;;5015139;28;20211;-77
2022/01/17 12:29:01;;;;;;;23.80;13.13;;;6.90;99.90;;;;;;5015476;28;20265;-77
2022/01/17 12:31:47;;;;;;;28.80;13.10;;;6.90;99.90;;;;;;5034057;28;20184;-77
2022/01/17 12:34:20;;;;;;;37.17;15.57;;;6.90;99.90;;;;;;5033324;28;20166;-78
2022/01/17 12:36:47;;;;;;;34.50;15.70;;;6.90;99.90;;;;;;5033601;28;20635;-77
2022/01/17 12:39:22;;;;;;;40.60;15.50;;;6.90;99.90;;;;;;5021669;28;20218;-77
2022/01/17 12:41:53;;;;;;;41.30;17.83;;;6.90;99.90;;;;;;5039860;28;20203;-77
2022/01/17 12:44:24;;;;;;;45.23;17.90;;;7.00;99.90;;;;;;5039657;28;20179;-77
2022/01/17 12:46:53;;;;;;;41.43;16.87;;;7.00;99.90;;;;;;5021846;28;20188;-77
2022/01/17 12:49:20;;;;;;;34.00;15.67;;;7.00;99.90;;;;;;5022455;28;20231;-77
2022/01/17 12:51:54;;;;;;;35.77;15.03;;;7.00;99.90;;;;;;5039747;28;20253;-79
2022/01/17 12:54:23;;;;;;;42.13;14.23;;;7.00;99.90;;;;;;5040323;28;20653;-79
2022/01/17 12:56:53;;;;;;;32.33;13.63;;;7.00;99.90;;;;;;5022690;28;20180;-79
2022/01/17 12:59:20;;;;;;;39.97;14.87;;;7.00;99.90;;;;;;5022417;28;20208;-78
2022/01/17 13:01:49;;;;;;;38.83;13.97;;;7.00;99.90;;;;;;5040928;28;20270;-80
2022/01/17 13:04:16;;;;;;;42.47;15.50;;;7.00;99.90;;;;;;5022338;28;20184;-76
2022/01/17 13:06:44;;;;;;;35.20;14.60;;;7.00;99.90;;;;;;5022371;28;20191;-79